Time;durP1;ratioP1;P1;durP2;ratioP2;P2;SDS_P1;SDS_P2;PMS_P1;PMS_P2;Temp;Humidity;BMP_temperature;BMP_pressure;BME280_temperature;BME280_humidity;BME280_pressure;Samples;Min_cycle;Max_cycle;Signal;HPM_P1;HPM_P2
2021/06/20 00:00:44;;;;;;;0.03;0.03;;;18.50;99.90;;;;;;5017681;28;20038;-87
2021/06/20 00:03:10;;;;;;;0.10;0.10;;;18.50;99.90;;;;;;5022706;28;20490;-87
2021/06/20 00:05:39;;;;;;;0.10;0.10;;;18.50;99.90;;;;;;5014499;28;20503;-87
2021/06/20 00:08:09;;;;;;;0.50;0.50;;;18.40;99.90;;;;;;5017853;28;20168;-87
2021/06/20 00:10:37;;;;;;;0.05;0.05;;;18.40;99.90;;;;;;5022531;28;20022;-86
2021/06/20 00:13:04;;;;;;;0.52;0.32;;;18.40;99.90;;;;;;5034707;28;20025;-86
2021/06/20 00:15:31;;;;;;;0.10;0.10;;;18.40;99.90;;;;;;5021815;28;20503;-86
2021/06/20 00:17:57;;;;;;;1.45;0.22;;;18.50;99.90;;;;;;5012850;28;20041;-86
2021/06/20 00:20:26;;;;;;;0.40;0.40;;;18.50;99.90;;;;;;5018187;28;20545;-86
2021/06/20 00:22:53;;;;;;;0.00;0.00;;;18.40;99.90;;;;;;5018232;28;20038;-86
2021/06/20 00:25:19;;;;;;;0.43;0.40;;;18.40;99.90;;;;;;5027726;28;20025;-87
2021/06/20 00:27:45;;;;;;;0.45;0.45;;;18.40;99.90;;;;;;5017692;28;20481;-87
2021/06/20 00:30:14;;;;;;;0.00;0.00;;;18.50;99.90;;;;;;5013738;28;20025;-87
2021/06/20 00:32:41;;;;;;;0.75;0.75;;;18.50;99.90;;;;;;5014033;28;20026;-87
2021/06/20 00:35:08;;;;;;;0.28;0.28;;;18.50;99.90;;;;;;5022823;28;20030;-87
2021/06/20 00:37:34;;;;;;;3.13;0.45;;;18.40;99.90;;;;;;5019387;28;20042;-86
2021/06/20 00:40:01;;;;;;;0.20;0.20;;;18.50;99.90;;;;;;5020040;28;20013;-87
2021/06/20 00:42:26;;;;;;;;;;;18.50;99.90;;;;;;5022197;28;20021;-86
2021/06/20 00:44:52;;;;;;;0.35;0.35;;;18.50;99.90;;;;;;5018271;28;20833;-87
2021/06/20 00:47:19;;;;;;;0.00;0.00;;;18.60;99.90;;;;;;5025657;28;20037;-86
2021/06/20 00:49:46;;;;;;;0.73;0.73;;;18.50;99.90;;;;;;5016559;28;20034;-86
2021/06/20 00:52:13;;;;;;;0.15;0.15;;;18.50;99.90;;;;;;5022497;28;20041;-86
2021/06/20 00:54:46;;;;;;;;;;;18.40;99.90;;;;;;5029151;28;20017;-86
2021/06/20 00:57:14;;;;;;;0.50;0.47;;;18.40;99.90;;;;;;5018869;28;19915;-86
2021/06/20 00:59:41;;;;;;;0.00;0.00;;;18.40;99.90;;;;;;5021389;28;20033;-86
2021/06/20 01:02:06;;;;;;;0.15;0.15;;;18.40;99.90;;;;;;5022552;28;20030;-86
2021/06/20 01:04:32;;;;;;;0.20;0.20;;;18.30;99.90;;;;;;5020199;28;20052;-86
2021/06/20 01:06:58;;;;;;;0.13;0.13;;;18.30;99.90;;;;;;5023930;28;20327;-86
2021/06/20 01:09:24;;;;;;;0.10;0.10;;;18.30;99.90;;;;;;5019299;28;20020;-85
2021/06/20 01:11:50;;;;;;;0.10;0.10;;;18.30;99.90;;;;;;5023665;28;20022;-85
2021/06/20 01:14:15;;;;;;;0.23;0.23;;;18.30;99.90;;;;;;5019155;28;20092;-87
2021/06/20 01:16:41;;;;;;;0.13;0.13;;;18.30;99.90;;;;;;5042184;28;20458;-87
2021/06/20 01:19:07;;;;;;;0.27;0.27;;;18.30;99.90;;;;;;5022265;28;20040;-86
2021/06/20 01:21:33;;;;;;;0.27;0.27;;;18.30;99.90;;;;;;5027059;28;20030;-87
2021/06/20 01:23:59;;;;;;;0.10;0.10;;;18.30;99.90;;;;;;5028021;28;20076;-87
2021/06/20 01:26:24;;;;;;;0.10;0.10;;;18.30;99.90;;;;;;5036697;28;20026;-86
2021/06/20 01:29:02;;;;;;;0.10;0.10;;;18.40;99.90;;;;;;5030087;28;20021;-87
2021/06/20 01:31:30;;;;;;;0.47;0.35;;;18.50;99.90;;;;;;5030371;28;20124;-87
2021/06/20 01:33:56;;;;;;;0.20;0.20;;;18.60;99.90;;;;;;5016613;28;20041;-86
2021/06/20 01:36:22;;;;;;;0.57;0.57;;;18.70;99.90;;;;;;5022575;28;20017;-85
2021/06/20 01:38:49;;;;;;;0.10;0.10;;;18.60;99.90;;;;;;5022027;28;20036;-85
2021/06/20 01:41:15;;;;;;;0.38;0.38;;;18.60;99.90;;;;;;5026063;28;20036;-84
2021/06/20 01:43:41;;;;;;;0.30;0.30;;;18.60;99.90;;;;;;5022454;28;20138;-85
2021/06/20 01:46:07;;;;;;;0.83;0.83;;;18.70;99.90;;;;;;5026652;28;20174;-85
2021/06/20 01:48:33;;;;;;;0.20;0.20;;;18.70;99.90;;;;;;5025259;28;20020;-86
2021/06/20 01:51:00;;;;;;;1.55;1.20;;;18.30;99.90;;;;;;5025134;28;20080;-86
2021/06/20 01:53:25;;;;;;;0.10;0.10;;;17.00;99.90;;;;;;5025831;28;20060;-87
2021/06/20 01:55:51;;;;;;;0.20;0.20;;;16.40;1.00;;;;;;5029600;28;20037;-87
2021/06/20 01:58:18;;;;;;;0.63;0.53;;;16.60;99.90;;;;;;5033648;28;20030;-87
2021/06/20 02:00:47;;;;;;;0.20;0.20;;;16.90;99.90;;;;;;5019969;28;20030;-87
2021/06/20 02:03:27;;;;;;;0.28;0.28;;;17.10;99.90;;;;;;5024895;28;20071;-87
2021/06/20 02:05:59;;;;;;;0.10;0.10;;;17.50;99.90;;;;;;5019578;28;20061;-87
2021/06/20 02:08:25;;;;;;;0.43;0.28;;;17.60;99.90;;;;;;5023403;28;20045;-87
2021/06/20 02:10:56;;;;;;;0.10;0.10;;;17.60;99.90;;;;;;5025536;28;20033;-86
2021/06/20 02:13:24;;;;;;;0.20;0.20;;;17.50;99.90;;;;;;5027763;28;20498;-86
2021/06/20 02:15:51;;;;;;;0.10;0.10;;;17.40;99.90;;;;;;5021013;28;20080;-86
2021/06/20 02:18:17;;;;;;;;;;;17.30;99.90;;;;;;5024059;28;20033;-86
2021/06/20 02:20:43;;;;;;;0.23;0.23;;;17.30;99.90;;;;;;5017476;28;19913;-86
2021/06/20 02:23:09;;;;;;;0.28;0.28;;;17.30;99.90;;;;;;5019428;28;20274;-86
2021/06/20 02:25:36;;;;;;;0.20;0.20;;;17.30;99.90;;;;;;5031217;28;20037;-87
2021/06/20 02:28:02;;;;;;;;;;;17.30;99.90;;;;;;5019561;28;20083;-86
2021/06/20 02:30:27;;;;;;;0.10;0.10;;;17.30;99.90;;;;;;5015423;28;20575;-86
2021/06/20 02:32:53;;;;;;;0.97;0.50;;;17.30;99.90;;;;;;5020787;28;20053;-86
2021/06/20 02:35:20;;;;;;;0.77;0.73;;;17.20;99.90;;;;;;5024504;28;20040;-87
2021/06/20 02:37:48;;;;;;;0.10;0.10;;;17.20;99.90;;;;;;5030996;28;20049;-86
2021/06/20 02:40:17;;;;;;;0.20;0.20;;;17.10;99.90;;;;;;5016638;28;20033;-86
2021/06/20 02:42:43;;;;;;;0.63;0.63;;;17.00;99.90;;;;;;5024278;28;20021;-86
2021/06/20 02:45:10;;;;;;;;;;;16.90;99.90;;;;;;5016087;28;20503;-85
2021/06/20 02:47:37;;;;;;;0.13;0.13;;;16.90;99.90;;;;;;5022494;28;19905;-86
2021/06/20 02:50:07;;;;;;;;;;;16.90;99.90;;;;;;5040561;28;20033;-85
2021/06/20 02:52:33;;;;;;;0.22;0.22;;;17.10;99.90;;;;;;5022732;28;19909;-85
2021/06/20 02:55:00;;;;;;;0.70;0.70;;;17.10;99.90;;;;;;5022506;28;20515;-85
2021/06/20 02:57:29;;;;;;;0.75;0.52;;;17.10;99.90;;;;;;5035499;28;20038;-85
2021/06/20 02:59:56;;;;;;;5.13;0.80;;;17.10;99.90;;;;;;5015893;28;20037;-85
2021/06/20 03:02:23;;;;;;;0.10;0.10;;;17.00;99.90;;;;;;5017076;28;20518;-85
2021/06/20 03:04:53;;;;;;;0.45;0.45;;;17.00;99.90;;;;;;5015837;28;20050;-86
2021/06/20 03:07:20;;;;;;;2.38;1.15;;;16.90;99.90;;;;;;5013022;28;20400;-85
2021/06/20 03:09:46;;;;;;;0.70;0.70;;;16.90;99.90;;;;;;5018736;28;20032;-85
2021/06/20 03:12:13;;;;;;;0.17;0.17;;;16.90;99.90;;;;;;5028189;28;20027;-85
2021/06/20 03:14:39;;;;;;;;;;;16.90;99.90;;;;;;5013883;28;20025;-85
2021/06/20 03:17:05;;;;;;;;;;;16.80;99.90;;;;;;5015030;28;20340;-85
2021/06/20 03:19:33;;;;;;;0.57;0.57;;;16.80;99.90;;;;;;5021802;28;19968;-84
2021/06/20 03:22:02;;;;;;;0.30;0.30;;;16.80;99.90;;;;;;5024614;28;20018;-85
2021/06/20 03:24:33;;;;;;;0.10;0.10;;;16.80;99.90;;;;;;5019094;28;20026;-85
2021/06/20 03:26:59;;;;;;;6.15;1.20;;;16.80;99.90;;;;;;5015255;28;20519;-85
2021/06/20 03:29:25;;;;;;;0.00;0.00;;;16.80;99.90;;;;;;5020211;28;20052;-85
2021/06/20 03:31:52;;;;;;;0.52;0.52;;;16.80;99.90;;;;;;5027431;28;20044;-84
2021/06/20 03:34:19;;;;;;;0.10;0.10;;;16.80;99.90;;;;;;5011421;28;20511;-85
2021/06/20 03:36:45;;;;;;;0.30;0.30;;;16.80;99.90;;;;;;5014843;28;20040;-85
2021/06/20 03:39:11;;;;;;;0.10;0.10;;;16.80;99.90;;;;;;5015387;28;20026;-84
2021/06/20 03:41:40;;;;;;;0.10;0.10;;;16.80;99.90;;;;;;5023165;28;20033;-84
2021/06/20 03:44:06;;;;;;;0.10;0.10;;;16.80;99.90;;;;;;5017985;28;20025;-84
2021/06/20 03:46:36;;;;;;;0.13;0.13;;;16.80;99.90;;;;;;5022481;28;20043;-85
2021/06/20 03:49:03;;;;;;;0.20;0.20;;;16.80;99.90;;;;;;5019105;28;20407;-85
2021/06/20 03:51:33;;;;;;;0.90;0.32;;;16.80;99.90;;;;;;5025085;28;20574;-86
2021/06/20 03:53:59;;;;;;;0.65;0.65;;;16.90;99.90;;;;;;5020789;28;20033;-86
2021/06/20 03:56:25;;;;;;;0.10;0.10;;;16.90;99.90;;;;;;5013945;28;20515;-85
2021/06/20 03:58:51;;;;;;;0.17;0.17;;;16.90;99.90;;;;;;5019005;28;20030;-85
2021/06/20 04:01:17;;;;;;;0.30;0.30;;;16.90;99.90;;;;;;5018953;28;20030;-85
2021/06/20 04:03:42;;;;;;;0.73;0.73;;;16.90;99.90;;;;;;5017662;28;20029;-85
2021/06/20 04:06:08;;;;;;;1.63;1.00;;;16.90;99.90;;;;;;5033519;28;20033;-85
2021/06/20 04:08:34;;;;;;;0.10;0.10;;;16.90;99.90;;;;;;5015958;28;20045;-85
2021/06/20 04:11:00;;;;;;;0.10;0.10;;;16.90;99.90;;;;;;5021676;28;20039;-85
2021/06/20 04:13:26;;;;;;;0.10;0.10;;;16.80;99.90;;;;;;5021948;28;20045;-84
2021/06/20 04:15:52;;;;;;;0.30;0.30;;;16.80;99.90;;;;;;5023606;28;20463;-85
2021/06/20 04:18:17;;;;;;;0.10;0.10;;;16.80;99.90;;;;;;5019715;28;20029;-84
2021/06/20 04:20:43;;;;;;;0.10;0.10;;;16.80;99.90;;;;;;5021283;28;20104;-86
2021/06/20 04:23:10;;;;;;;0.10;0.10;;;16.80;99.90;;;;;;5018939;28;20029;-85
2021/06/20 04:25:36;;;;;;;0.30;0.30;;;16.80;99.90;;;;;;5023961;28;20075;-85
2021/06/20 04:28:03;;;;;;;0.43;0.43;;;16.80;99.90;;;;;;5018121;28;20033;-85
2021/06/20 04:30:29;;;;;;;0.10;0.10;;;16.80;99.90;;;;;;5011642;28;20063;-85
2021/06/20 04:32:55;;;;;;;0.08;0.08;;;16.80;99.90;;;;;;5021098;28;20044;-85
2021/06/20 04:35:21;;;;;;;0.00;0.00;;;16.70;99.90;;;;;;5019739;28;20402;-86
2021/06/20 04:37:47;;;;;;;0.10;0.10;;;16.70;99.90;;;;;;5020107;28;20041;-85
2021/06/20 04:40:19;;;;;;;0.10;0.10;;;16.70;99.90;;;;;;5026028;28;20560;-85
2021/06/20 04:42:54;;;;;;;0.10;0.10;;;16.70;99.90;;;;;;5025091;28;20056;-85
2021/06/20 04:45:20;;;;;;;0.20;0.20;;;16.70;99.90;;;;;;5017412;28;20018;-85
2021/06/20 04:47:46;;;;;;;0.10;0.10;;;16.70;99.90;;;;;;5026302;28;20040;-84
2021/06/20 04:50:12;;;;;;;0.10;0.10;;;16.70;99.90;;;;;;5019471;28;20555;-85
2021/06/20 04:52:42;;;;;;;0.10;0.10;;;16.70;99.90;;;;;;5022887;28;20033;-85
2021/06/20 04:55:12;;;;;;;0.35;0.35;;;16.90;99.90;;;;;;5014032;28;20037;-84
2021/06/20 04:57:38;;;;;;;0.10;0.10;;;16.80;99.90;;;;;;5025125;28;20034;-85
2021/06/20 05:00:06;;;;;;;0.00;0.00;;;16.90;99.90;;;;;;5016188;28;20025;-85
2021/06/20 05:02:32;;;;;;;0.00;0.00;;;16.90;99.90;;;;;;5016248;28;20446;-84
2021/06/20 05:04:58;;;;;;;1.70;1.17;;;16.90;99.90;;;;;;5016400;28;20117;-85
2021/06/20 05:07:24;;;;;;;0.43;0.43;;;17.00;99.90;;;;;;5018513;28;20072;-85
2021/06/20 05:09:50;;;;;;;0.00;0.00;;;17.00;99.90;;;;;;5016064;28;20029;-84
2021/06/20 05:12:17;;;;;;;0.00;0.00;;;17.00;99.90;;;;;;5012268;28;20034;-85
2021/06/20 05:14:44;;;;;;;0.13;0.13;;;17.00;99.90;;;;;;5016971;28;20041;-84
2021/06/20 05:17:11;;;;;;;8.57;2.78;;;17.10;99.90;;;;;;5018659;28;20082;-84
2021/06/20 05:19:37;;;;;;;0.50;0.47;;;17.20;99.90;;;;;;5015561;28;20040;-85
2021/06/20 05:22:03;;;;;;;0.47;0.38;;;17.30;99.90;;;;;;5015190;28;20048;-85
2021/06/20 05:24:29;;;;;;;4.60;1.13;;;17.50;99.90;;;;;;5015621;28;20033;-85
2021/06/20 05:26:55;;;;;;;0.00;0.00;;;17.50;99.90;;;;;;5020130;28;20033;-83
2021/06/20 05:29:20;;;;;;;0.00;0.00;;;17.60;99.90;;;;;;5016112;28;20160;-84
2021/06/20 05:31:46;;;;;;;0.03;0.03;;;17.80;99.90;;;;;;5020122;28;20029;-83
2021/06/20 05:34:12;;;;;;;0.23;0.23;;;17.80;99.90;;;;;;5024011;28;20026;-85
2021/06/20 05:36:38;;;;;;;0.00;0.00;;;17.60;99.90;;;;;;5028527;28;20537;-87
2021/06/20 05:39:05;;;;;;;0.75;0.52;;;17.50;99.90;;;;;;5028582;28;20931;-87
2021/06/20 05:41:31;;;;;;;;;;;17.40;99.90;;;;;;5018796;28;20042;-84
2021/06/20 05:43:58;;;;;;;0.00;0.00;;;17.40;99.90;;;;;;5024247;28;20020;-83
2021/06/20 05:46:25;;;;;;;0.30;0.20;;;17.40;99.90;;;;;;5020081;28;20128;-83
2021/06/20 05:48:52;;;;;;;0.43;0.43;;;17.50;99.90;;;;;;5022235;28;20037;-82
2021/06/20 05:51:19;;;;;;;0.00;0.00;;;17.60;99.90;;;;;;5037656;28;20068;-81
2021/06/20 05:53:45;;;;;;;0.10;0.10;;;17.70;99.90;;;;;;5029573;28;20018;-81
2021/06/20 05:56:12;;;;;;;0.00;0.00;;;17.90;99.90;;;;;;5039908;28;20025;-81
2021/06/20 05:58:37;;;;;;;0.13;0.13;;;17.90;99.90;;;;;;5022980;28;20029;-81
2021/06/20 06:01:03;;;;;;;0.10;0.10;;;18.00;99.90;;;;;;5022905;28;20043;-81
2021/06/20 06:03:32;;;;;;;0.00;0.00;;;18.10;99.90;;;;;;5035532;28;20064;-83
2021/06/20 06:05:58;;;;;;;0.13;0.13;;;18.10;99.90;;;;;;5020594;28;20442;-86
2021/06/20 06:08:24;;;;;;;0.57;0.57;;;18.00;99.90;;;;;;5021662;28;20025;-86
2021/06/20 06:10:50;;;;;;;0.13;0.13;;;18.00;99.90;;;;;;5016147;28;20061;-85
2021/06/20 06:13:16;;;;;;;1.50;1.30;;;17.80;99.90;;;;;;5021166;28;20420;-84
2021/06/20 06:15:42;;;;;;;0.10;0.10;;;17.60;99.90;;;;;;5025879;28;20818;-84
2021/06/20 06:18:07;;;;;;;0.47;0.47;;;17.70;99.90;;;;;;5024712;28;20037;-85
2021/06/20 06:20:33;;;;;;;0.33;0.30;;;17.70;99.90;;;;;;5032416;28;20072;-84
2021/06/20 06:22:59;;;;;;;0.22;0.22;;;17.80;99.90;;;;;;5026795;28;20037;-84
2021/06/20 06:25:26;;;;;;;0.30;0.30;;;17.90;99.90;;;;;;5019238;28;20494;-84
2021/06/20 06:27:56;;;;;;;0.47;0.47;;;18.00;99.90;;;;;;5024989;28;20045;-84
2021/06/20 06:30:22;;;;;;;0.00;0.00;;;18.30;99.90;;;;;;5018827;28;20047;-83
2021/06/20 06:32:52;;;;;;;0.63;0.43;;;18.40;99.90;;;;;;5021393;28;20107;-84
2021/06/20 06:35:21;;;;;;;0.13;0.13;;;18.50;99.90;;;;;;5020763;28;20786;-84
2021/06/20 06:37:58;;;;;;;0.35;0.35;;;18.60;99.90;;;;;;5027713;28;20060;-84
2021/06/20 06:40:23;;;;;;;0.00;0.00;;;18.30;99.90;;;;;;5025140;28;20075;-84
2021/06/20 06:42:49;;;;;;;0.60;0.37;;;17.90;99.90;;;;;;5023045;28;20025;-84
2021/06/20 06:45:16;;;;;;;0.00;0.00;;;18.20;99.90;;;;;;5035327;28;20112;-84
2021/06/20 06:47:42;;;;;;;0.25;0.17;;;18.60;99.90;;;;;;5023159;28;20109;-84
2021/06/20 06:50:09;;;;;;;0.15;0.15;;;19.00;99.90;;;;;;5036456;28;20391;-86
2021/06/20 06:52:35;;;;;;;0.10;0.10;;;19.00;99.90;;;;;;5035598;28;20067;-85
2021/06/20 06:55:01;;;;;;;0.00;0.00;;;19.20;99.90;;;;;;5018926;28;20025;-85
2021/06/20 06:57:27;;;;;;;0.15;0.15;;;19.10;99.90;;;;;;5023335;28;20041;-86
2021/06/20 06:59:54;;;;;;;0.10;0.10;;;19.00;99.90;;;;;;5019468;28;20025;-85
2021/06/20 07:02:23;;;;;;;0.00;0.00;;;19.30;99.90;;;;;;5021810;28;20108;-85
2021/06/20 07:04:49;;;;;;;0.40;0.40;;;19.80;99.90;;;;;;5036974;28;20151;-84
2021/06/20 07:07:15;;;;;;;;;;;20.20;99.90;;;;;;5023219;28;20033;-85
2021/06/20 07:09:41;;;;;;;0.00;0.00;;;19.30;99.90;;;;;;5023436;28;19909;-85
2021/06/20 07:12:11;;;;;;;0.03;0.03;;;19.70;99.90;;;;;;5021242;28;20172;-86
2021/06/20 07:14:37;;;;;;;0.08;0.08;;;20.30;99.90;;;;;;5019504;28;20041;-85
2021/06/20 07:17:04;;;;;;;1.17;0.55;;;21.50;99.90;;;;;;5014837;28;20403;-86
2021/06/20 07:19:30;;;;;;;0.00;0.00;;;20.20;99.90;;;;;;5015649;28;20034;-85
2021/06/20 07:21:56;;;;;;;0.65;0.22;;;19.60;99.90;;;;;;5018945;28;20779;-85
2021/06/20 07:24:21;;;;;;;0.37;0.37;;;19.60;99.90;;;;;;5039302;28;20124;-85
2021/06/20 07:26:47;;;;;;;0.10;0.10;;;18.80;99.90;;;;;;5021911;28;20038;-86
2021/06/20 07:29:13;;;;;;;0.00;0.00;;;19.40;99.90;;;;;;5027177;28;20030;-84
2021/06/20 07:31:39;;;;;;;0.20;0.20;;;19.80;99.90;;;;;;5024716;28;20060;-85
2021/06/20 07:34:05;;;;;;;0.00;0.00;;;19.50;99.90;;;;;;5013531;28;20057;-86
2021/06/20 07:36:32;;;;;;;0.10;0.10;;;19.60;99.90;;;;;;5027386;28;20037;-85
2021/06/20 07:38:59;;;;;;;0.43;0.38;;;19.50;99.90;;;;;;5032277;28;20037;-87
2021/06/20 07:41:25;;;;;;;0.00;0.00;;;19.80;99.90;;;;;;5010654;28;20036;-86
2021/06/20 07:43:52;;;;;;;;;;;20.30;99.90;;;;;;5030968;28;20049;-86
2021/06/20 07:46:17;;;;;;;0.00;0.00;;;21.00;99.90;;;;;;5025864;28;19951;-84
2021/06/20 07:48:43;;;;;;;0.00;0.00;;;20.10;99.90;;;;;;5008188;28;20049;-85
2021/06/20 07:51:09;;;;;;;0.13;0.13;;;20.40;99.90;;;;;;5008869;28;20133;-84
2021/06/20 07:53:35;;;;;;;0.00;0.00;;;20.60;99.90;;;;;;5016047;28;20029;-87
2021/06/20 07:56:01;;;;;;;0.00;0.00;;;20.30;99.90;;;;;;5017932;28;20037;-86
2021/06/20 07:58:27;;;;;;;0.20;0.20;;;20.10;99.90;;;;;;5008109;28;20037;-86
2021/06/20 08:00:53;;;;;;;0.00;0.00;;;20.20;99.90;;;;;;5008188;28;20055;-86
2021/06/20 08:03:19;;;;;;;0.00;0.00;;;20.20;99.90;;;;;;5010211;28;20629;-86
2021/06/20 08:05:45;;;;;;;0.00;0.00;;;20.20;99.90;;;;;;5027903;28;20041;-86
2021/06/20 08:08:11;;;;;;;0.00;0.00;;;20.20;99.90;;;;;;5028208;28;20404;-86
2021/06/20 08:10:36;;;;;;;2.13;0.37;;;19.90;99.90;;;;;;5027805;28;20025;-87
2021/06/20 08:13:02;;;;;;;0.10;0.10;;;20.30;99.90;;;;;;5028668;28;20017;-87
2021/06/20 08:15:28;;;;;;;0.00;0.00;;;21.10;99.90;;;;;;5027655;28;20037;-87
2021/06/20 08:17:54;;;;;;;0.10;0.10;;;21.00;99.90;;;;;;5027922;28;20059;-87
2021/06/20 08:20:19;;;;;;;0.10;0.10;;;20.70;99.90;;;;;;5019743;28;20025;-86
2021/06/20 08:22:45;;;;;;;0.20;0.20;;;20.40;99.90;;;;;;5040946;28;20033;-84
2021/06/20 08:25:12;;;;;;;0.00;0.00;;;20.10;99.90;;;;;;5019438;28;20014;-87
2021/06/20 08:27:40;;;;;;;0.00;0.00;;;20.00;99.90;;;;;;5009236;28;20108;-88
2021/06/20 08:30:07;;;;;;;0.20;0.20;;;19.20;99.90;;;;;;5008833;28;20029;-87
2021/06/20 08:32:33;;;;;;;0.00;0.00;;;19.00;99.90;;;;;;5010209;28;20036;-87
2021/06/20 08:35:00;;;;;;;0.32;0.32;;;18.90;99.90;;;;;;5008596;28;20022;-84
2021/06/20 08:37:27;;;;;;;0.00;0.00;;;18.90;99.90;;;;;;5016371;28;20025;-84
2021/06/20 08:39:53;;;;;;;0.00;0.00;;;19.00;99.90;;;;;;5010200;28;20499;-84
2021/06/20 08:42:19;;;;;;;0.15;0.15;;;18.80;99.90;;;;;;5009254;28;20071;-83
2021/06/20 08:44:45;;;;;;;0.10;0.10;;;18.70;99.90;;;;;;5016786;28;20446;-85
2021/06/20 08:47:13;;;;;;;0.00;0.00;;;18.40;99.90;;;;;;5018790;28;20499;-85
2021/06/20 08:49:39;;;;;;;0.00;0.00;;;18.30;99.90;;;;;;5019378;28;20680;-86
2021/06/20 08:52:06;;;;;;;0.00;0.00;;;18.20;99.90;;;;;;5021958;28;20575;-85
2021/06/20 08:54:32;;;;;;;0.00;0.00;;;18.10;99.90;;;;;;5026639;28;20041;-87
2021/06/20 08:57:00;;;;;;;0.20;0.10;;;18.10;99.90;;;;;;5025057;28;20053;-85
2021/06/20 08:59:26;;;;;;;0.00;0.00;;;18.20;99.90;;;;;;5015595;28;20434;-84
2021/06/20 09:01:56;;;;;;;0.47;0.47;;;18.10;99.90;;;;;;5026796;28;20079;-85
2021/06/20 09:04:31;;;;;;;0.10;0.10;;;18.00;99.90;;;;;;5025676;28;20534;-86
2021/06/20 09:07:02;;;;;;;0.45;0.40;;;17.80;99.90;;;;;;5028833;28;20030;-86
2021/06/20 09:09:30;;;;;;;0.00;0.00;;;17.80;99.90;;;;;;5030202;28;20026;-84
2021/06/20 09:12:15;;;;;;;0.47;0.47;;;17.80;99.90;;;;;;5014904;28;20046;-84
2021/06/20 09:14:51;;;;;;;0.00;0.00;;;17.80;99.90;;;;;;5029765;28;20440;-84
2021/06/20 09:17:25;;;;;;;0.52;0.52;;;17.80;99.90;;;;;;5031472;28;20083;-84
2021/06/20 09:20:00;;;;;;;0.20;0.20;;;17.80;99.90;;;;;;5029677;28;20431;-84
2021/06/20 09:22:28;;;;;;;0.25;0.25;;;17.70;99.90;;;;;;5030910;28;20475;-85
2021/06/20 09:25:08;;;;;;;1.55;1.17;;;17.60;99.90;;;;;;5025168;28;20018;-84
2021/06/20 09:27:35;;;;;;;0.10;0.10;;;17.30;99.90;;;;;;5011398;28;20060;-83
2021/06/20 09:30:11;;;;;;;0.15;0.15;;;17.10;99.90;;;;;;5018734;28;20021;-84
2021/06/20 09:32:51;;;;;;;0.05;0.05;;;16.90;99.90;;;;;;5012042;28;20116;-84
2021/06/20 09:35:16;;;;;;;0.20;0.20;;;17.00;99.90;;;;;;5015162;28;20061;-84
2021/06/20 09:37:53;;;;;;;0.40;0.40;;;17.00;99.90;;;;;;5027026;28;20052;-83
2021/06/20 09:40:20;;;;;;;0.00;0.00;;;16.90;99.90;;;;;;5018538;28;20057;-84
2021/06/20 09:42:45;;;;;;;0.20;0.20;;;16.80;99.90;;;;;;5016149;28;20029;-84
2021/06/20 09:45:12;;;;;;;0.00;0.00;;;16.70;99.90;;;;;;5021013;28;20120;-84
2021/06/20 09:47:40;;;;;;;;;;;16.60;99.90;;;;;;5018063;28;20070;-83
2021/06/20 09:50:07;;;;;;;0.03;0.03;;;16.50;99.90;;;;;;5021959;28;19913;-84
2021/06/20 09:52:35;;;;;;;0.20;0.20;;;16.70;99.90;;;;;;5022291;28;20084;-85
2021/06/20 09:55:08;;;;;;;0.25;0.10;;;16.70;99.90;;;;;;5021794;28;20771;-84
2021/06/20 09:57:45;;;;;;;0.00;0.00;;;16.50;99.90;;;;;;5021010;28;20097;-86
2021/06/20 10:00:13;;;;;;;0.25;0.25;;;16.60;99.90;;;;;;5019960;28;20032;-84
2021/06/20 10:02:40;;;;;;;0.10;0.10;;;16.70;99.90;;;;;;5019710;28;20038;-85
2021/06/20 10:05:12;;;;;;;1.77;0.30;;;16.70;99.90;;;;;;5002833;28;20533;-85
2021/06/20 10:07:40;;;;;;;1.38;0.90;;;16.90;99.90;;;;;;5002644;28;20045;-85
2021/06/20 10:10:09;;;;;;;0.47;0.45;;;17.00;99.90;;;;;;4967808;28;20057;-84
2021/06/20 10:12:44;;;;;;;0.10;0.10;;;17.10;99.90;;;;;;4998667;28;20040;-84
2021/06/20 10:15:13;;;;;;;0.00;0.00;;;17.40;99.90;;;;;;4994676;28;20039;-84
2021/06/20 10:17:54;;;;;;;0.28;0.20;;;17.60;99.90;;;;;;4996612;28;20029;-84
2021/06/20 10:20:29;;;;;;;0.10;0.10;;;18.10;99.90;;;;;;4997622;28;20488;-84
2021/06/20 10:23:02;;;;;;;0.00;0.00;;;18.90;99.90;;;;;;4976654;28;20038;-84
2021/06/20 10:25:40;;;;;;;0.60;0.20;;;18.80;99.90;;;;;;4985878;28;20057;-85
2021/06/20 10:28:07;;;;;;;0.10;0.10;;;19.00;99.90;;;;;;4983817;28;20049;-85
2021/06/20 10:30:36;;;;;;;1.48;0.80;;;18.90;99.90;;;;;;5003316;28;20035;-84
2021/06/20 10:33:08;;;;;;;0.00;0.00;;;18.60;99.90;;;;;;4995668;28;20108;-84
2021/06/20 10:35:36;;;;;;;0.10;0.10;;;18.20;99.90;;;;;;4993766;28;21716;-85
2021/06/20 10:38:03;;;;;;;0.28;0.28;;;18.00;99.90;;;;;;5003189;28;20033;-84
2021/06/20 10:40:31;;;;;;;0.00;0.00;;;17.80;99.90;;;;;;4998706;28;20022;-83
2021/06/20 10:42:59;;;;;;;0.10;0.10;;;17.90;99.90;;;;;;4997297;28;20682;-84
2021/06/20 10:45:35;;;;;;;0.00;0.00;;;17.90;99.90;;;;;;4990308;28;20034;-85
2021/06/20 10:48:16;;;;;;;0.10;0.10;;;18.00;99.90;;;;;;4991734;28;20109;-84
2021/06/20 10:50:50;;;;;;;0.10;0.10;;;18.50;99.90;;;;;;4993973;28;20022;-84
2021/06/20 10:53:17;;;;;;;0.05;0.05;;;18.80;99.90;;;;;;4995420;28;20124;-85
2021/06/20 10:55:47;;;;;;;0.00;0.00;;;19.20;99.90;;;;;;5003042;28;20025;-85
2021/06/20 10:58:20;;;;;;;0.10;0.10;;;19.70;99.90;;;;;;4998903;28;20101;-84
2021/06/20 11:00:47;;;;;;;0.00;0.00;;;20.20;99.90;;;;;;5005447;28;20041;-84
2021/06/20 11:03:13;;;;;;;;;;;19.90;99.90;;;;;;4993149;28;20057;-85
2021/06/20 11:05:50;;;;;;;0.10;0.10;;;19.10;99.90;;;;;;5035813;28;20429;-85
2021/06/20 11:08:42;;;;;;;0.30;0.30;;;18.80;99.90;;;;;;5033401;28;20022;-86
2021/06/20 11:11:07;;;;;;;0.00;0.00;;;18.60;99.90;;;;;;5015183;28;20454;-85
2021/06/20 11:13:34;;;;;;;0.00;0.00;;;18.40;99.90;;;;;;5033339;28;20124;-85
2021/06/20 11:16:08;;;;;;;0.10;0.10;;;18.20;99.90;;;;;;5023540;28;20044;-85
2021/06/20 11:18:34;;;;;;;0.10;0.10;;;18.00;99.90;;;;;;5021729;28;20036;-86
2021/06/20 11:21:01;;;;;;;0.10;0.10;;;18.10;99.90;;;;;;5022818;28;20033;-86
2021/06/20 11:23:30;;;;;;;0.10;0.10;;;18.30;99.90;;;;;;5011992;28;20045;-86
2021/06/20 11:26:00;;;;;;;0.38;0.10;;;18.60;99.90;;;;;;5019154;28;20408;-87
2021/06/20 11:28:27;;;;;;;0.00;0.00;;;19.20;99.90;;;;;;5013744;28;20028;-85
2021/06/20 11:31:13;;;;;;;0.00;0.00;;;19.80;99.90;;;;;;5037209;28;20030;-86
2021/06/20 11:33:39;;;;;;;0.10;0.10;;;20.10;99.90;;;;;;5019098;28;20060;-85
2021/06/20 11:36:05;;;;;;;0.10;0.10;;;20.40;99.90;;;;;;5019296;28;20069;-85
2021/06/20 11:38:37;;;;;;;0.20;0.20;;;20.00;99.90;;;;;;5017649;28;20028;-86
2021/06/20 11:41:15;;;;;;;0.13;0.13;;;20.10;99.90;;;;;;5021126;28;20029;-86
2021/06/20 11:44:02;;;;;;;0.00;0.00;;;20.40;99.90;;;;;;5018575;28;20115;-85
2021/06/20 11:46:31;;;;;;;0.00;0.00;;;21.20;99.90;;;;;;5015183;28;20403;-86
2021/06/20 11:49:00;;;;;;;0.28;0.28;;;21.30;99.90;;;;;;5018680;28;20022;-85
2021/06/20 11:51:38;;;;;;;0.17;0.17;;;21.60;99.90;;;;;;5021120;28;20018;-85
2021/06/20 11:54:26;;;;;;;0.00;0.00;;;21.70;99.90;;;;;;5018006;28;20038;-85
2021/06/20 11:57:01;;;;;;;0.30;0.30;;;21.60;99.90;;;;;;5017171;28;20569;-85
2021/06/20 11:59:41;;;;;;;0.55;0.55;;;21.40;99.90;;;;;;5020264;28;20064;-84
2021/06/20 12:02:12;;;;;;;2.28;0.25;;;20.80;99.90;;;;;;5020409;28;20039;-84
2021/06/20 12:04:45;;;;;;;0.30;0.30;;;20.50;99.90;;;;;;5018870;28;20045;-85
2021/06/20 12:07:27;;;;;;;0.10;0.10;;;20.60;99.90;;;;;;5019749;28;20418;-85
2021/06/20 12:10:02;;;;;;;0.30;0.30;;;20.70;99.90;;;;;;5017786;28;20038;-85
2021/06/20 12:12:28;;;;;;;0.10;0.10;;;21.00;99.90;;;;;;5018472;28;20611;-84
2021/06/20 12:14:59;;;;;;;0.00;0.00;;;20.50;99.90;;;;;;5014225;28;20120;-84
2021/06/20 12:17:27;;;;;;;0.00;0.00;;;20.40;99.90;;;;;;5015254;28;20065;-84
2021/06/20 12:19:53;;;;;;;0.05;0.05;;;20.60;99.90;;;;;;5016232;28;20030;-84
2021/06/20 12:22:19;;;;;;;1.30;0.57;;;20.50;99.90;;;;;;5017172;28;20100;-84
2021/06/20 12:24:49;;;;;;;;;;;20.70;99.90;;;;;;5022680;28;20037;-84
2021/06/20 12:27:30;;;;;;;0.00;0.00;;;20.80;99.90;;;;;;5018440;28;19917;-83
2021/06/20 12:29:56;;;;;;;0.15;0.15;;;21.20;99.90;;;;;;5019567;28;20030;-84
2021/06/20 12:32:22;;;;;;;0.17;0.17;;;21.50;99.90;;;;;;5019044;28;20155;-84
2021/06/20 12:34:51;;;;;;;0.35;0.25;;;21.80;99.90;;;;;;5035416;28;20045;-84
2021/06/20 12:37:20;;;;;;;0.08;0.08;;;21.70;99.90;;;;;;5017123;28;20033;-83
2021/06/20 12:39:52;;;;;;;0.00;0.00;;;21.50;99.90;;;;;;5015179;28;20056;-83
2021/06/20 12:42:20;;;;;;;0.00;0.00;;;21.20;99.90;;;;;;5028676;28;20029;-83
2021/06/20 12:44:49;;;;;;;0.10;0.10;;;21.20;99.90;;;;;;5019327;28;20025;-83
2021/06/20 12:47:31;;;;;;;0.00;0.00;;;21.60;99.90;;;;;;5026230;28;20128;-84
2021/06/20 12:49:59;;;;;;;0.00;0.00;;;21.70;99.90;;;;;;5022568;28;20499;-83
2021/06/20 12:52:36;;;;;;;0.00;0.00;;;21.50;99.90;;;;;;5028109;28;20029;-85
2021/06/20 12:55:15;;;;;;;0.13;0.13;;;21.30;99.90;;;;;;5043248;28;20057;-85